createdAt,value
2023-09-13T00:00:27.124Z,101369.84
2023-09-13T00:02:53.665Z,101374.38
2023-09-13T00:05:20.511Z,101372.53
2023-09-13T00:07:47.108Z,101373.56
2023-09-13T00:10:13.764Z,101369.19
2023-09-13T00:12:40.444Z,101371.03
2023-09-13T00:15:07.589Z,101378.28
2023-09-13T00:17:34.529Z,101375.59
2023-09-13T00:20:01.008Z,101361.28
2023-09-13T00:22:27.492Z,101368.53
2023-09-13T00:24:53.950Z,101366.84
2023-09-13T00:27:20.332Z,101369.53
2023-09-13T00:29:46.727Z,101366.03
2023-09-13T00:32:13.181Z,101365.19
2023-09-13T00:34:39.693Z,101366.03
2023-09-13T00:37:06.226Z,101365.19
2023-09-13T00:39:33.536Z,101369.72
2023-09-13T00:42:00.029Z,101371.41
2023-09-13T00:44:26.454Z,101366.16
2023-09-13T00:46:53.138Z,101369.72
2023-09-13T00:49:20.016Z,101367.19
2023-09-13T00:51:46.620Z,101361.16
2023-09-13T00:54:14.142Z,101361.97
2023-09-13T00:56:42.710Z,101353.25
2023-09-13T00:59:10.693Z,101363.66
2023-09-13T01:01:37.438Z,101359.47
2023-09-13T01:04:04.605Z,101362.34
2023-09-13T01:06:32.427Z,101358.81
2023-09-13T01:08:59.033Z,101364.00
2023-09-13T01:11:26.352Z,101360.47
2023-09-13T01:13:52.741Z,101349.72
2023-09-13T01:16:38.597Z,101351.56
2023-09-13T01:19:26.685Z,101356.97
2023-09-13T01:22:11.070Z,101355.09
2023-09-13T01:24:50.143Z,101356.13
2023-09-13T01:27:44.610Z,101355.28
2023-09-13T01:30:13.185Z,101351.75
2023-09-13T01:32:39.613Z,101350.91
2023-09-13T01:35:06.817Z,101358.16
2023-09-13T01:37:33.982Z,101353.75
2023-09-13T01:40:01.524Z,101347.53
2023-09-13T01:42:31.268Z,101355.59
2023-09-13T01:44:58.520Z,101351.06
2023-09-13T01:47:26.456Z,101365.53
2023-09-13T01:49:53.355Z,101359.31
2023-09-13T01:52:20.083Z,101352.25
2023-09-13T01:54:46.627Z,101347.91
2023-09-13T01:57:13.142Z,101349.56
2023-09-13T01:59:39.631Z,101348.72
2023-09-13T02:02:06.136Z,101356.97
2023-09-13T02:04:34.597Z,101359.66
2023-09-13T02:07:04.898Z,101355.13
2023-09-13T02:09:32.762Z,101356.97
2023-09-13T02:11:59.294Z,101352.63
2023-09-13T02:14:25.834Z,101354.47
2023-09-13T02:16:52.353Z,101356.31
2023-09-13T02:19:18.966Z,101358.84
2023-09-13T02:21:46.595Z,101359.00
2023-09-13T02:24:13.445Z,101364.38
2023-09-13T02:26:41.176Z,101369.91
2023-09-13T02:29:07.624Z,101368.09
2023-09-13T02:31:34.232Z,101378.84
2023-09-13T02:34:00.831Z,101373.63
2023-09-13T02:36:27.264Z,101375.47
2023-09-13T02:38:54.487Z,101374.47
2023-09-13T02:41:21.105Z,101371.09
2023-09-13T02:43:47.930Z,101373.78
2023-09-13T02:46:14.660Z,101370.28
2023-09-13T02:48:41.266Z,101372.97
2023-09-13T02:51:14.903Z,101374.81
2023-09-13T02:53:41.955Z,101369.59
2023-09-13T02:56:09.500Z,101378.69
2023-09-13T02:58:36.272Z,101372.47
2023-09-13T03:01:05.135Z,101377.84
2023-09-13T03:03:33.773Z,101380.53
2023-09-13T03:06:13.921Z,101384.06
2023-09-13T03:08:40.444Z,101377.84
2023-09-13T03:11:14.449Z,101385.91
2023-09-13T03:13:44.604Z,101378.88
2023-09-13T03:16:22.471Z,101381.56
2023-09-13T03:18:51.782Z,101380.72
2023-09-13T03:21:21.678Z,101377.16
2023-09-13T03:23:49.998Z,101384.38
2023-09-13T03:26:20.546Z,101373.63
2023-09-13T03:28:52.242Z,101366.53
2023-09-13T03:31:20.953Z,101370.06
2023-09-13T03:33:49.772Z,101376.31
2023-09-13T03:36:17.345Z,101374.63
2023-09-13T03:38:45.239Z,101379.34
2023-09-13T03:41:14.122Z,101372.09
2023-09-13T03:43:41.030Z,101377.47
2023-09-13T03:46:08.555Z,101373.94
2023-09-13T03:48:36.274Z,101379.34
2023-09-13T03:51:04.429Z,101375.81
2023-09-13T03:53:31.563Z,101374.13
2023-09-13T03:55:58.450Z,101381.34
2023-09-13T03:58:24.935Z,101377.66
2023-09-13T04:00:51.499Z,101380.34
2023-09-13T04:03:18.378Z,101381.34
2023-09-13T04:05:45.032Z,101377.84
2023-09-13T04:08:11.735Z,101378.84
2023-09-13T04:10:38.652Z,101380.69
2023-09-13T04:13:05.978Z,101376.16
2023-09-13T04:15:33.078Z,101374.47
2023-09-13T04:17:59.532Z,101373.63
2023-09-13T04:20:26.037Z,101368.25
2023-09-13T04:22:52.579Z,101373.63
2023-09-13T04:25:19.440Z,101379.88
2023-09-13T04:27:47.238Z,101371.94
2023-09-13T04:30:15.514Z,101364.88
2023-09-13T04:32:42.409Z,101372.94
2023-09-13T04:35:09.419Z,101376.47
2023-09-13T04:37:38.032Z,101386.41
2023-09-13T04:40:06.652Z,101377.50
2023-09-13T04:42:43.994Z,101381.84
2023-09-13T04:45:10.596Z,101374.81
2023-09-13T04:47:38.076Z,101375.81
2023-09-13T04:50:06.198Z,101385.72
2023-09-13T04:52:33.650Z,101381.19
2023-09-13T04:55:00.080Z,101389.25
2023-09-13T04:57:26.603Z,101394.63
2023-09-13T04:59:53.663Z,101387.59
2023-09-13T05:02:20.227Z,101394.63
2023-09-13T05:04:46.920Z,101399.19
2023-09-13T05:07:13.534Z,101396.66
2023-09-13T05:09:41.350Z,101395.81
2023-09-13T05:12:08.302Z,101407.41
2023-09-13T05:14:37.367Z,101403.88
2023-09-13T05:17:05.238Z,101397.69
2023-09-13T05:19:32.416Z,101401.19
2023-09-13T05:21:59.017Z,101403.06
2023-09-13T05:24:25.546Z,101396.00
2023-09-13T05:26:52.092Z,101400.53
2023-09-13T05:29:18.552Z,101406.06
2023-09-13T05:31:45.137Z,101406.91
2023-09-13T05:34:11.706Z,101414.13
2023-09-13T05:36:38.269Z,101414.97
2023-09-13T05:39:04.872Z,101411.63
2023-09-13T05:41:33.406Z,101424.03
2023-09-13T05:43:59.835Z,101427.56
2023-09-13T05:46:27.067Z,101422.19
2023-09-13T05:48:53.800Z,101425.06
2023-09-13T05:51:20.565Z,101425.88
2023-09-13T05:53:47.316Z,101433.13
2023-09-13T05:56:13.718Z,101446.72
2023-09-13T05:58:44.541Z,101454.63
2023-09-13T06:01:14.018Z,101470.75
2023-09-13T06:03:40.790Z,101477.97
2023-09-13T06:06:07.346Z,101496.78
2023-09-13T06:08:34.955Z,101494.09
2023-09-13T06:11:01.395Z,101496.13
2023-09-13T06:13:28.057Z,101506.88
2023-09-13T06:15:54.644Z,101507.72
2023-09-13T06:18:21.240Z,101538.13
2023-09-13T06:20:47.998Z,101546.38
2023-09-13T06:23:40.282Z,101559.81
2023-09-13T06:26:07.626Z,101575.94
2023-09-13T06:28:35.027Z,101600.13
2023-09-13T06:31:04.520Z,101608.38
2023-09-13T06:36:02.104Z,101612.19
2023-09-13T06:38:31.440Z,101622.97
2023-09-13T06:40:58.988Z,101629.16
2023-09-13T06:46:04.628Z,101623.97
2023-09-13T06:48:33.309Z,101624.97
2023-09-13T06:53:34.606Z,101642.09
2023-09-13T06:56:05.165Z,101650.16
2023-09-13T06:58:33.969Z,101659.75
2023-09-13T07:03:34.875Z,101675.53
2023-09-13T07:06:02.535Z,101668.31
2023-09-13T07:08:29.053Z,101675.53
2023-09-13T07:10:55.496Z,101680.06
2023-09-13T07:13:22.098Z,101688.13
2023-09-13T07:15:49.295Z,101693.50
2023-09-13T07:18:16.206Z,101695.34
2023-09-13T07:20:42.848Z,101702.41
2023-09-13T07:23:10.334Z,101706.13
2023-09-13T07:25:37.030Z,101715.16
2023-09-13T07:28:04.201Z,101720.53
2023-09-13T07:30:30.765Z,101714.19
2023-09-13T07:32:57.407Z,101710.66
2023-09-13T07:35:24.664Z,101713.16
2023-09-13T07:37:51.377Z,101711.31
2023-09-13T07:40:18.146Z,101717.53
2023-09-13T07:42:44.738Z,101720.06
2023-09-13T07:45:11.466Z,101720.06
2023-09-13T07:47:38.099Z,101721.75
2023-09-13T07:50:04.944Z,101726.94
2023-09-13T07:52:42.561Z,101726.09
2023-09-13T07:55:17.938Z,101732.31
2023-09-13T07:57:44.403Z,101735.72
2023-09-13T08:00:11.565Z,101746.13
2023-09-13T08:02:38.046Z,101756.56
2023-09-13T08:05:05.276Z,101755.56
2023-09-13T08:07:31.933Z,101752.03
2023-09-13T08:09:58.359Z,101752.88
2023-09-13T08:12:24.852Z,101760.94
2023-09-13T08:14:51.711Z,101750.88
2023-09-13T08:17:18.257Z,101757.94
2023-09-13T08:19:44.716Z,101757.78
2023-09-13T08:22:12.858Z,101755.94
2023-09-13T08:24:41.938Z,101766.69
2023-09-13T08:27:08.421Z,101765.69
2023-09-13T08:29:35.827Z,101780.97
2023-09-13T08:32:02.374Z,101794.25
2023-09-13T08:34:28.797Z,101791.38
2023-09-13T08:36:57.102Z,101794.63
2023-09-13T08:39:23.906Z,101801.84
2023-09-13T08:41:54.567Z,101792.59
2023-09-13T08:44:22.196Z,101785.53
2023-09-13T08:46:57.986Z,101795.97
2023-09-13T08:49:25.798Z,101792.84
2023-09-13T08:51:54.070Z,101794.34
2023-09-13T08:54:22.227Z,101796.03
2023-09-13T08:56:48.933Z,101794.03
2023-09-13T08:59:18.613Z,101829.69
2023-09-13T09:01:50.265Z,101840.97
2023-09-13T09:04:18.009Z,101845.03
2023-09-13T09:06:44.854Z,101854.13
2023-09-13T09:09:14.185Z,101849.63
2023-09-13T09:11:48.337Z,101842.59
2023-09-13T09:14:19.522Z,101857.09
2023-09-13T09:16:48.951Z,101865.34
2023-09-13T09:19:15.839Z,101875.78
2023-09-13T09:21:42.578Z,101883.53
2023-09-13T09:24:09.274Z,101896.31
2023-09-13T09:26:35.715Z,101895.69
2023-09-13T09:29:19.565Z,101895.41
2023-09-13T09:31:46.789Z,101893.38
2023-09-13T09:34:15.693Z,101900.78
2023-09-13T09:36:43.881Z,101908.34
2023-09-13T09:39:11.326Z,101917.09
2023-09-13T09:41:39.508Z,101924.16
2023-09-13T09:44:06.862Z,101917.59
2023-09-13T09:46:34.829Z,101918.66
2023-09-13T09:49:02.155Z,101923.56
2023-09-13T09:51:29.917Z,101923.56
2023-09-13T09:53:57.334Z,101920.03
2023-09-13T09:56:24.070Z,101919.72
2023-09-13T09:58:52.277Z,101928.13
2023-09-13T10:01:19.816Z,101933.16
2023-09-13T10:03:46.554Z,101930.63
2023-09-13T10:06:15.116Z,101920.53
2023-09-13T10:08:48.988Z,101922.88
2023-09-13T10:11:18.756Z,101937.53
2023-09-13T10:13:48.455Z,101941.41
2023-09-13T10:16:17.504Z,101943.56
2023-09-13T10:18:46.653Z,101942.59
2023-09-13T10:21:15.226Z,101950.34
2023-09-13T10:23:44.854Z,101947.34
2023-09-13T10:26:14.627Z,101955.44
2023-09-13T10:28:45.526Z,101959.66
2023-09-13T10:31:20.893Z,101956.13
2023-09-13T10:33:53.185Z,101962.38
2023-09-13T10:36:39.777Z,101968.34
2023-09-13T10:39:18.795Z,101965.13
2023-09-13T10:42:02.847Z,101971.19
2023-09-13T10:44:29.445Z,101962.25
2023-09-13T10:46:57.189Z,101971.19
2023-09-13T10:49:25.372Z,101968.69
2023-09-13T10:51:54.659Z,101974.25
2023-09-13T10:54:22.586Z,101970.84
2023-09-13T10:56:49.447Z,101968.84
2023-09-13T10:59:19.318Z,101979.13
2023-09-13T11:01:49.009Z,101981.97
2023-09-13T11:04:25.651Z,101980.81
2023-09-13T11:06:54.654Z,101983.34
2023-09-13T11:09:31.222Z,101998.31
2023-09-13T11:11:59.235Z,102000.34
2023-09-13T11:14:31.132Z,102007.22
2023-09-13T11:17:10.124Z,102013.97
2023-09-13T11:19:36.710Z,102020.69
2023-09-13T11:22:04.939Z,102027.56
2023-09-13T11:24:49.735Z,102034.97
2023-09-13T11:27:19.705Z,102035.28
2023-09-13T11:29:47.360Z,102038.81
2023-09-13T11:32:18.607Z,102038.16
2023-09-13T11:34:46.424Z,102034.97
2023-09-13T11:37:14.344Z,102054.13
2023-09-13T11:39:41.430Z,102054.47
2023-09-13T11:42:22.807Z,102053.78
2023-09-13T11:45:03.207Z,102064.69
2023-09-13T11:47:38.019Z,102064.03
2023-09-13T11:50:13.073Z,102072.44
2023-09-13T11:53:18.202Z,102070.94
2023-09-13T11:56:03.867Z,102074.09
2023-09-13T11:58:48.363Z,102069.03
2023-09-13T12:01:25.603Z,102071.91
2023-09-13T12:04:24.017Z,102073.88
2023-09-13T12:06:50.137Z,102072.75
2023-09-13T12:09:25.208Z,102080.50
2023-09-13T12:12:00.697Z,102082.00
2023-09-13T12:14:40.609Z,102085.91
2023-09-13T12:17:15.304Z,102081.94
2023-09-13T12:19:41.871Z,102083.38
2023-09-13T12:22:13.776Z,102088.28
2023-09-13T12:24:51.124Z,102083.13
2023-09-13T12:27:18.209Z,102095.44
2023-09-13T12:29:45.780Z,102087.53
2023-09-13T12:32:12.856Z,102088.56
2023-09-13T12:34:39.408Z,102095.97
2023-09-13T12:37:07.419Z,102091.63
2023-09-13T12:39:34.826Z,102094.31
2023-09-13T12:42:06.838Z,102098.47
2023-09-13T12:44:36.674Z,102102.88
2023-09-13T12:47:04.789Z,102094.06
2023-09-13T12:49:31.355Z,102103.88
2023-09-13T12:51:57.846Z,102104.19
2023-09-13T12:54:24.673Z,102106.03
2023-09-13T12:56:51.189Z,102108.56
2023-09-13T12:59:17.633Z,102104.66
2023-09-13T13:01:44.390Z,102111.91
2023-09-13T13:04:12.462Z,102110.09
2023-09-13T13:07:05.110Z,102109.75
2023-09-13T13:09:31.623Z,102111.13
2023-09-13T13:11:58.498Z,102110.78
2023-09-13T13:14:28.115Z,102106.41
2023-09-13T13:17:00.262Z,102106.06
2023-09-13T13:22:12.661Z,102114.81
2023-09-13T13:24:40.439Z,102117.69
2023-09-13T13:27:07.514Z,102110.09
2023-09-13T13:29:37.850Z,102130.16
2023-09-13T13:32:06.025Z,102130.78
2023-09-13T13:34:33.084Z,102126.56
2023-09-13T13:36:59.623Z,102115.75
2023-09-13T13:39:26.120Z,102121.72
2023-09-13T13:41:52.722Z,102124.56
2023-09-13T13:44:19.412Z,102127.88
2023-09-13T13:46:46.106Z,102144.00
2023-09-13T13:49:17.452Z,102135.03
2023-09-13T13:51:46.440Z,102131.28
2023-09-13T13:54:12.971Z,102131.94
2023-09-13T13:56:41.445Z,102134.94
2023-09-13T13:59:10.243Z,102130.03
2023-09-13T14:01:36.881Z,102127.97
2023-09-13T14:04:05.059Z,102129.41
2023-09-13T14:06:31.678Z,102121.97
2023-09-13T14:08:58.150Z,102127.81
2023-09-13T14:11:24.928Z,102138.53
2023-09-13T14:13:51.634Z,102136.94
2023-09-13T14:16:18.202Z,102137.25
2023-09-13T14:18:44.800Z,102129.63
2023-09-13T14:21:11.423Z,102130.25
2023-09-13T14:23:37.894Z,102127.34
2023-09-13T14:26:05.007Z,102126.78
2023-09-13T14:28:34.578Z,102124.44
2023-09-13T14:31:01.065Z,102130.97
2023-09-13T14:33:31.383Z,102125.88
2023-09-13T14:35:58.108Z,102125.88
2023-09-13T14:38:24.706Z,102125.72
2023-09-13T14:40:51.448Z,102120.34
2023-09-13T14:43:18.135Z,102116.81
2023-09-13T14:45:44.603Z,102116.81
2023-09-13T14:48:11.346Z,102118.53
2023-09-13T14:50:37.926Z,102118.81
2023-09-13T14:53:05.732Z,102125.34
2023-09-13T14:55:33.188Z,102125.50
2023-09-13T14:57:59.593Z,102120.13
2023-09-13T15:00:26.058Z,102126.19
2023-09-13T15:02:52.674Z,102126.34
2023-09-13T15:05:19.287Z,102120.81
2023-09-13T15:07:45.803Z,102123.19
2023-09-13T15:10:12.895Z,102117.97
2023-09-13T15:12:39.718Z,102126.59
2023-09-13T15:15:06.647Z,102119.50
2023-09-13T15:17:33.946Z,102127.88
2023-09-13T15:20:00.592Z,102124.50
2023-09-13T15:22:28.983Z,102125.66
2023-09-13T15:24:56.066Z,102126.75
2023-09-13T15:27:25.580Z,102123.38
2023-09-13T15:29:52.182Z,102123.69
2023-09-13T15:32:18.645Z,102129.22
2023-09-13T15:34:45.052Z,102125.84
2023-09-13T15:37:11.570Z,102136.06
2023-09-13T15:39:40.140Z,102127.75
2023-09-13T15:42:06.718Z,102126.50
2023-09-13T15:44:33.184Z,102134.19
2023-09-13T15:46:59.669Z,102137.16
2023-09-13T15:49:26.708Z,102143.69
2023-09-13T15:51:53.354Z,102143.84
2023-09-13T15:54:20.254Z,102138.78
2023-09-13T15:56:48.012Z,102149.53
2023-09-13T15:59:14.540Z,102136.94
2023-09-13T16:01:41.114Z,102137.63
2023-09-13T16:04:08.665Z,102141.47
2023-09-13T16:06:37.292Z,102144.84
2023-09-13T16:09:05.047Z,102140.31
2023-09-13T16:11:33.058Z,102143.16
2023-09-13T16:13:59.698Z,102144.16
2023-09-13T16:16:28.934Z,102150.53
2023-09-13T16:18:55.709Z,102147.13
2023-09-13T16:21:22.582Z,102154.34
2023-09-13T16:23:48.998Z,102150.13
2023-09-13T16:26:15.461Z,102155.66
2023-09-13T16:28:42.091Z,102177.00
2023-09-13T16:31:09.590Z,102166.41
2023-09-13T16:33:37.181Z,102180.53
2023-09-13T16:36:04.665Z,102181.22
2023-09-13T16:38:31.157Z,102174.31
2023-09-13T16:40:59.308Z,102186.22
2023-09-13T16:43:26.048Z,102179.28
2023-09-13T16:45:52.568Z,102182.28
2023-09-13T16:48:31.777Z,102187.09
2023-09-13T16:50:58.975Z,102190.91
2023-09-13T16:53:25.466Z,102188.38
2023-09-13T16:55:52.798Z,102190.53
2023-09-13T16:58:19.225Z,102188.97
2023-09-13T17:00:45.931Z,102189.38
2023-09-13T17:03:12.639Z,102193.06
2023-09-13T17:05:39.162Z,102195.19
2023-09-13T17:08:06.493Z,102201.84
2023-09-13T17:10:33.030Z,102198.75
2023-09-13T17:12:59.596Z,102210.63
2023-09-13T17:15:26.207Z,102205.25
2023-09-13T17:17:52.737Z,102201.16
2023-09-13T17:20:19.228Z,102209.34
2023-09-13T17:22:45.825Z,102207.91
2023-09-13T17:25:12.361Z,102202.97
2023-09-13T17:27:38.839Z,102210.56
2023-09-13T17:30:06.348Z,102222.56
2023-09-13T17:32:33.013Z,102220.44
2023-09-13T17:34:59.572Z,102223.69
2023-09-13T17:37:29.916Z,102223.22
2023-09-13T17:39:57.396Z,102232.72
2023-09-13T17:42:24.317Z,102232.56
2023-09-13T17:44:51.928Z,102235.94
2023-09-13T17:47:22.215Z,102242.88
2023-09-13T17:49:48.726Z,102241.88
2023-09-13T17:52:15.177Z,102244.41
2023-09-13T17:54:41.717Z,102243.25
2023-09-13T17:57:08.497Z,102239.56
2023-09-13T17:59:35.822Z,102250.16
2023-09-13T18:02:02.772Z,102255.53
2023-09-13T18:04:29.462Z,102249.06
2023-09-13T18:06:56.020Z,102246.34
2023-09-13T18:09:22.678Z,102251.88
2023-09-13T18:11:52.706Z,102256.53
2023-09-13T18:14:19.664Z,102250.31
2023-09-13T18:16:46.325Z,102258.53
2023-09-13T18:19:12.994Z,102262.22
2023-09-13T18:21:39.647Z,102262.22
2023-09-13T18:24:09.153Z,102270.28
2023-09-13T18:26:35.987Z,102266.59
2023-09-13T18:29:02.463Z,102269.44
2023-09-13T18:31:29.043Z,102274.69
2023-09-13T18:33:55.552Z,102277.38
2023-09-13T18:36:22.235Z,102273.84
2023-09-13T18:38:50.530Z,102283.59
2023-09-13T18:41:17.044Z,102285.44
2023-09-13T18:43:43.515Z,102291.66
2023-09-13T18:46:10.024Z,102281.91
2023-09-13T18:48:36.599Z,102287.28
2023-09-13T18:51:05.074Z,102291.66
2023-09-13T18:53:31.614Z,102287.28
2023-09-13T18:55:59.650Z,102297.03
2023-09-13T18:58:29.323Z,102297.19
2023-09-13T19:00:57.224Z,102303.25
2023-09-13T19:03:24.916Z,102306.09
2023-09-13T19:06:06.407Z,102315.84
2023-09-13T19:08:32.846Z,102315.00
2023-09-13T19:11:03.023Z,102316.00
2023-09-13T19:13:30.697Z,102315.00
2023-09-13T19:16:02.288Z,102321.91
2023-09-13T19:18:33.891Z,102323.91
2023-09-13T19:21:02.266Z,102321.38
2023-09-13T19:23:31.322Z,102325.75
2023-09-13T19:25:59.656Z,102334.81
2023-09-13T19:28:27.954Z,102327.75
2023-09-13T19:30:56.320Z,102328.75
2023-09-13T19:33:26.473Z,102335.13
2023-09-13T19:35:54.458Z,102337.94
2023-09-13T19:38:29.172Z,102334.28
2023-09-13T19:40:56.603Z,102331.72
2023-09-13T19:43:24.125Z,102335.38
2023-09-13T19:45:51.285Z,102332.69
2023-09-13T19:48:17.980Z,102334.53
2023-09-13T19:50:53.701Z,102329.16
2023-09-13T19:53:21.138Z,102332.84
2023-09-13T19:55:47.656Z,102341.91
2023-09-13T19:58:14.626Z,102337.53
2023-09-13T20:00:43.341Z,102333.84
2023-09-13T20:03:09.911Z,102340.22
2023-09-13T20:05:36.773Z,102336.69
2023-09-13T20:08:04.742Z,102336.69
2023-09-13T20:10:31.244Z,102341.22
2023-09-13T20:12:57.751Z,102335.84
2023-09-13T20:15:26.718Z,102343.59
2023-09-13T20:17:53.616Z,102338.38
2023-09-13T20:20:20.392Z,102346.28
2023-09-13T20:22:46.867Z,102358.88
2023-09-13T20:25:15.710Z,102358.03
2023-09-13T20:27:42.484Z,102350.81
2023-09-13T20:30:10.231Z,102346.28
2023-09-13T20:32:36.724Z,102354.22
2023-09-13T20:35:06.595Z,102355.19
2023-09-13T20:37:33.089Z,102349.69
2023-09-13T20:40:01.333Z,102351.53
2023-09-13T20:42:28.581Z,102355.19
2023-09-13T20:44:55.198Z,102361.44
2023-09-13T20:47:23.059Z,102360.72
2023-09-13T20:49:49.547Z,102361.88
2023-09-13T20:52:16.019Z,102357.75
2023-09-13T20:54:42.537Z,102359.75
2023-09-13T20:57:09.016Z,102356.38
2023-09-13T20:59:36.377Z,102360.91
2023-09-13T21:02:04.796Z,102347.59
2023-09-13T21:04:33.228Z,102351.41
2023-09-13T21:07:00.028Z,102358.94
2023-09-13T21:09:29.477Z,102368.97
2023-09-13T21:11:56.075Z,102368.09
2023-09-13T21:14:22.690Z,102372.78
2023-09-13T21:16:49.226Z,102367.56
2023-09-13T21:19:15.863Z,102357.09
2023-09-13T21:21:42.438Z,102365.16
2023-09-13T21:24:09.058Z,102370.69
2023-09-13T21:26:36.474Z,102371.81
2023-09-13T21:29:02.997Z,102377.19
2023-09-13T21:31:29.509Z,102373.75
2023-09-13T21:33:56.052Z,102366.69
2023-09-13T21:36:23.838Z,102375.75
2023-09-13T21:38:50.944Z,102375.88
2023-09-13T21:41:17.450Z,102373.31
2023-09-13T21:43:43.964Z,102382.38
2023-09-13T21:46:10.573Z,102381.53
2023-09-13T21:48:41.846Z,102372.78
2023-09-13T21:51:09.663Z,102370.09
2023-09-13T21:53:36.620Z,102379.00
2023-09-13T21:56:04.120Z,102380.97
2023-09-13T21:58:31.239Z,102370.38
2023-09-13T22:00:59.520Z,102372.34
2023-09-13T22:03:32.698Z,102381.38
2023-09-13T22:06:02.203Z,102371.63
2023-09-13T22:08:28.702Z,102370.09
2023-09-13T22:11:09.934Z,102374.47
2023-09-13T22:13:37.571Z,102371.06
2023-09-13T22:16:06.579Z,102373.91
2023-09-13T22:18:33.259Z,102372.34
2023-09-13T22:21:02.114Z,102384.06
2023-09-13T22:23:31.798Z,102376.16
2023-09-13T22:25:59.066Z,102386.06
2023-09-13T22:28:27.041Z,102384.34
2023-09-13T22:31:00.734Z,102386.34
2023-09-13T22:33:29.618Z,102381.97
2023-09-13T22:35:57.065Z,102384.66
2023-09-13T22:38:25.533Z,102381.22
2023-09-13T22:40:52.837Z,102383.22
2023-09-13T22:43:19.324Z,102379.84
2023-09-13T22:45:45.803Z,102386.19
2023-09-13T22:48:12.411Z,102381.81
2023-09-13T22:50:39.122Z,102372.19
2023-09-13T22:53:05.833Z,102375.72
2023-09-13T22:55:32.674Z,102375.84
2023-09-13T22:57:59.558Z,102377.69
2023-09-13T23:00:26.211Z,102380.53
2023-09-13T23:02:53.016Z,102380.66
2023-09-13T23:05:21.262Z,102382.50
2023-09-13T23:07:54.669Z,102386.19
2023-09-13T23:10:21.978Z,102382.66
2023-09-13T23:12:48.489Z,102388.97
2023-09-13T23:15:15.613Z,102384.75
2023-09-13T23:17:42.106Z,102388.28
2023-09-13T23:20:11.548Z,102391.09
2023-09-13T23:22:38.023Z,102380.38
2023-09-13T23:25:05.485Z,102382.34
2023-09-13T23:27:32.069Z,102379.66
2023-09-13T23:29:58.561Z,102381.66
2023-09-13T23:32:26.142Z,102383.44
2023-09-13T23:34:52.625Z,102386.13
2023-09-13T23:37:20.729Z,102385.44
2023-09-13T23:39:47.141Z,102378.38
2023-09-13T23:42:13.561Z,102388.25
2023-09-13T23:44:39.995Z,102382.03
2023-09-13T23:47:06.711Z,102382.19
2023-09-13T23:49:35.485Z,102392.06
2023-09-13T23:52:01.963Z,102386.72
2023-09-13T23:54:28.564Z,102393.06
2023-09-13T23:56:54.960Z,102387.81
2023-09-13T23:59:22.136Z,102390.63
